Aivik — VOPP — position and weather

sailwx.info

Track history (hours):
 
Tides and Currents Weather Stations Pressure Air Temp Water Temp Dewpoint Dewpoint Depression Visibility Wind Speed Wind Dir Waves Ship Positions

Aivik

Last reported at 2015-Feb-15 18:07 UTC. Time now 2015-Mar-06 11:07 UTC.
Position N 18°20' W 064°49'.
Warning: this ship's position is 18 days out of date.

Length 109.9 m; beam 19.4 m; draft 5.9 m.

Type: Cargo ship. MMSI: 316150000.

Date/timePositionNaut miles runAvg speedWind from/ knotsBaromVisibWave heightAir tempDewpointWater temp
2015-Feb-15 18:07N 18°20' W 064°49'3 5.5
2015-Feb-15 17:33N 18°22' W 064°47'5 4.2
2015-Feb-15 16:23N 18°23' W 064°42'0 0.0
2015-Feb-15 15:29N 18°23' W 064°42'1 0.8
2015-Feb-15 14:26N 18°23' W 064°41'10 2.0
2015-Feb-15 09:20N 18°23' W 064°31'0 0.0
2015-Feb-13 20:32N 18°23' W 064°31'10 0.3
2015-Feb-12 15:11N 18°22' W 064°41'5 5.5
2015-Feb-12 14:22N 18°25' W 064°45'1 1.4
2015-Feb-12 13:30N 18°26' W 064°45'0 0.0
2015-Feb-12 12:24N 18°26' W 064°45'0 0.0
2015-Feb-12 11:30N 18°26' W 064°45'0 0.0
2015-Feb-12 10:30N 18°26' W 064°45'0 0.0
2015-Feb-12 09:30N 18°26' W 064°45'0 0.0
2015-Feb-12 08:30N 18°26' W 064°45'0 0.0
2015-Feb-12 07:33N 18°26' W 064°45'0 0.0
2015-Feb-12 06:30N 18°26' W 064°45'0 0.0
2015-Feb-12 05:12N 18°26' W 064°45'0 0.0
2015-Feb-12 04:30N 18°26' W 064°45'0 0.0
2015-Feb-12 03:30N 18°26' W 064°45'0 0.0
2015-Feb-12 02:24N 18°26' W 064°45'0 0.0
2015-Feb-12 01:30N 18°26' W 064°45'0 0.0
2015-Feb-12 00:30N 18°26' W 064°45'0 0.0
2015-Feb-11 23:30N 18°26' W 064°45'0 0.0
2015-Feb-11 22:30N 18°26' W 064°45'0 0.0
2015-Feb-11 21:33N 18°26' W 064°45'0 0.0
2015-Feb-11 20:27N 18°26' W 064°45'0 0.0
2015-Feb-11 19:33N 18°26' W 064°45'0 0.0
2015-Feb-11 18:31N 18°26' W 064°45'0 0.0
2015-Feb-11 17:31N 18°26' W 064°45'0 0.0
2015-Feb-11 16:32N 18°26' W 064°45'5 1.0
2015-Feb-11 11:11N 18°26' W 064°40'0 0.0
2015-Feb-11 04:17N 18°26' W 064°40'0 0.0
2015-Feb-11 02:05N 18°26' W 064°40'  
Track history (hours):
 
Tides and Currents Weather Stations Pressure Air Temp Water Temp Dewpoint Dewpoint Depression Visibility Wind Speed Wind Dir Waves Ship Positions

Aivik

Last reported at 2015-Feb-15 18:07 UTC. Time now 2015-Mar-06 11:07 UTC.
Position N 18°20' W 064°49'.
Warning: this ship's position is 18 days out of date.

Length 109.9 m; beam 19.4 m; draft 5.9 m.

Type: Cargo ship. MMSI: 316150000.

Date/timePositionNaut miles runAvg speedWind from/ knotsBaromVisibWave heightAir tempDewpointWater temp
2015-Feb-15 18:07N 18°20' W 064°49'3 5.5
2015-Feb-15 17:33N 18°22' W 064°47'5 4.2
2015-Feb-15 16:23N 18°23' W 064°42'0 0.0
2015-Feb-15 15:29N 18°23' W 064°42'1 0.8
2015-Feb-15 14:26N 18°23' W 064°41'10 2.0
2015-Feb-15 09:20N 18°23' W 064°31'0 0.0
2015-Feb-13 20:32N 18°23' W 064°31'10 0.3
2015-Feb-12 15:11N 18°22' W 064°41'5 5.5
2015-Feb-12 14:22N 18°25' W 064°45'1 1.4
2015-Feb-12 13:30N 18°26' W 064°45'0 0.0
2015-Feb-12 12:24N 18°26' W 064°45'0 0.0
2015-Feb-12 11:30N 18°26' W 064°45'0 0.0
2015-Feb-12 10:30N 18°26' W 064°45'0 0.0
2015-Feb-12 09:30N 18°26' W 064°45'0 0.0
2015-Feb-12 08:30N 18°26' W 064°45'0 0.0
2015-Feb-12 07:33N 18°26' W 064°45'0 0.0
2015-Feb-12 06:30N 18°26' W 064°45'0 0.0
2015-Feb-12 05:12N 18°26' W 064°45'0 0.0
2015-Feb-12 04:30N 18°26' W 064°45'0 0.0
2015-Feb-12 03:30N 18°26' W 064°45'0 0.0
2015-Feb-12 02:24N 18°26' W 064°45'0 0.0
2015-Feb-12 01:30N 18°26' W 064°45'0 0.0
2015-Feb-12 00:30N 18°26' W 064°45'0 0.0
2015-Feb-11 23:30N 18°26' W 064°45'0 0.0
2015-Feb-11 22:30N 18°26' W 064°45'0 0.0
2015-Feb-11 21:33N 18°26' W 064°45'0 0.0
2015-Feb-11 20:27N 18°26' W 064°45'0 0.0
2015-Feb-11 19:33N 18°26' W 064°45'0 0.0
2015-Feb-11 18:31N 18°26' W 064°45'0 0.0
2015-Feb-11 17:31N 18°26' W 064°45'0 0.0
2015-Feb-11 16:32N 18°26' W 064°45'5 1.0
2015-Feb-11 11:11N 18°26' W 064°40'0 0.0
2015-Feb-11 04:17N 18°26' W 064°40'0 0.0
2015-Feb-11 02:05N 18°26' W 064°40'  

Dump ship's entire track history